Time;durP1;ratioP1;P1;durP2;ratioP2;P2;SDS_P1;SDS_P2;PMS_P1;PMS_P2;Temp;Humidity;BMP_temperature;BMP_pressure;BME280_temperature;BME280_humidity;BME280_pressure;Samples;Min_cycle;Max_cycle;Signal;HPM_P1;HPM_P2
2022/05/06 00:00:23;;;;;;;9.23;3.63;;;10.70;99.90;;;;;;5200250;28;20461;-54
2022/05/06 00:02:55;;;;;;;3.47;3.17;;;10.60;99.90;;;;;;5200326;28;20438;-53
2022/05/06 00:05:26;;;;;;;10.43;4.23;;;10.50;99.90;;;;;;5198196;28;20178;-53
2022/05/06 00:07:56;;;;;;;5.60;3.23;;;10.50;99.90;;;;;;5198498;28;20462;-53
2022/05/06 00:10:27;;;;;;;13.37;3.37;;;10.50;99.90;;;;;;5193346;28;20714;-54
2022/05/06 00:12:57;;;;;;;5.30;3.40;;;10.40;99.90;;;;;;5201478;28;20297;-55
2022/05/06 00:15:28;;;;;;;3.63;3.40;;;10.30;99.90;;;;;;5198369;28;20263;-53
2022/05/06 00:17:58;;;;;;;3.97;3.67;;;10.30;99.90;;;;;;5197666;28;20187;-55
2022/05/06 00:20:29;;;;;;;7.73;3.90;;;10.30;99.90;;;;;;5200821;28;20361;-53
2022/05/06 00:23:00;;;;;;;8.20;3.83;;;10.20;99.90;;;;;;5216556;28;20603;-55
2022/05/06 00:25:31;;;;;;;6.83;3.60;;;10.10;99.90;;;;;;5197093;28;20833;-55
2022/05/06 00:28:01;;;;;;;10.43;4.23;;;10.10;99.90;;;;;;5198147;28;20474;-53
2022/05/06 00:30:32;;;;;;;4.37;3.70;;;10.10;99.90;;;;;;5211404;28;20203;-55
2022/05/06 00:33:03;;;;;;;12.00;3.57;;;10.10;99.90;;;;;;5199478;28;20195;-54
2022/05/06 00:35:33;;;;;;;3.63;3.37;;;10.00;99.90;;;;;;5195421;28;21150;-53
2022/05/06 00:38:05;;;;;;;5.97;3.43;;;10.00;99.90;;;;;;5182340;28;20270;-55
2022/05/06 00:40:35;;;;;;;5.30;3.40;;;9.90;99.90;;;;;;5198934;28;20211;-54
2022/05/06 00:43:06;;;;;;;4.37;3.47;;;9.90;99.90;;;;;;5198435;28;20438;-55
2022/05/06 00:45:46;;;;;;;4.50;4.10;;;9.90;99.90;;;;;;5199622;28;20191;-52
2022/05/06 00:48:18;;;;;;;9.63;3.00;;;9.90;99.90;;;;;;5196894;28;20587;-54
2022/05/06 00:50:50;;;;;;;3.47;3.00;;;9.90;99.90;;;;;;5198858;28;20895;-54
2022/05/06 00:53:20;;;;;;;13.47;3.93;;;9.80;99.90;;;;;;5196897;28;20552;-55
2022/05/06 00:55:52;;;;;;;3.10;2.90;;;9.80;99.90;;;;;;5196271;28;20944;-54
2022/05/06 00:58:25;;;;;;;8.90;4.03;;;9.80;99.90;;;;;;5201032;28;20175;-54
2022/05/06 01:00:55;;;;;;;9.03;4.63;;;9.80;99.90;;;;;;5201960;28;20837;-54
2022/05/06 01:03:26;;;;;;;5.57;4.20;;;9.70;99.90;;;;;;5193275;28;20525;-54
2022/05/06 01:05:57;;;;;;;6.23;4.27;;;9.70;99.90;;;;;;5202876;28;20191;-53
2022/05/06 01:08:29;;;;;;;4.30;4.00;;;9.70;99.90;;;;;;5204015;28;20203;-54
2022/05/06 01:10:59;;;;;;;5.40;3.87;;;9.70;99.90;;;;;;5197422;28;20472;-54
2022/05/06 01:13:30;;;;;;;6.80;3.50;;;9.80;99.90;;;;;;5204195;28;20433;-53
2022/05/06 01:16:00;;;;;;;7.17;4.13;;;9.80;99.90;;;;;;5203267;28;20183;-53
2022/05/06 01:18:31;;;;;;;4.33;4.03;;;9.70;99.90;;;;;;5211500;28;20609;-54
2022/05/06 01:21:03;;;;;;;4.27;3.97;;;9.70;99.90;;;;;;5202406;28;20214;-54
2022/05/06 01:23:35;;;;;;;4.50;4.10;;;9.70;99.90;;;;;;5205463;28;20180;-56
2022/05/06 01:26:05;;;;;;;5.60;3.30;;;9.60;99.90;;;;;;5195839;28;20527;-54
2022/05/06 01:28:38;;;;;;;5.47;4.40;;;9.60;99.90;;;;;;5217489;28;20450;-54
2022/05/06 01:31:09;;;;;;;3.67;3.40;;;9.50;99.90;;;;;;5203811;28;20699;-55
2022/05/06 01:33:41;;;;;;;4.23;3.90;;;9.50;99.90;;;;;;5200113;28;20505;-54
2022/05/06 01:36:12;;;;;;;6.63;3.80;;;9.50;99.90;;;;;;5197496;28;20427;-54
2022/05/06 01:38:46;;;;;;;3.70;3.40;;;9.40;99.90;;;;;;5203887;28;20985;-54
2022/05/06 01:41:28;;;;;;;5.53;4.80;;;9.50;99.90;;;;;;5198807;28;20922;-54
2022/05/06 01:44:04;;;;;;;4.33;3.90;;;9.40;99.90;;;;;;5201259;28;20486;-54
2022/05/06 01:46:37;;;;;;;4.47;3.60;;;9.50;99.90;;;;;;5201321;28;20449;-54
2022/05/06 01:49:10;;;;;;;5.73;4.07;;;9.50;99.90;;;;;;5199434;28;20709;-53
2022/05/06 01:51:43;;;;;;;6.67;4.10;;;9.50;99.90;;;;;;5201167;28;20560;-55
2022/05/06 01:54:13;;;;;;;6.10;4.57;;;9.50;99.90;;;;;;5212203;28;20490;-55
2022/05/06 01:56:46;;;;;;;5.80;4.43;;;9.50;99.90;;;;;;5200274;28;20430;-55
2022/05/06 01:59:16;;;;;;;5.30;4.20;;;9.50;99.90;;;;;;5200557;28;20199;-54
2022/05/06 02:01:47;;;;;;;5.60;4.00;;;9.50;99.90;;;;;;5197529;28;20785;-55
2022/05/06 02:07:07;;;;;;;4.00;3.70;;;9.40;99.90;;;;;;5204189;28;20742;-55
2022/05/06 02:09:37;;;;;;;7.50;5.00;;;9.40;99.90;;;;;;5204214;28;20462;-55
2022/05/06 02:12:08;;;;;;;4.30;4.00;;;9.40;99.90;;;;;;5199569;28;20262;-56
2022/05/06 02:14:39;;;;;;;5.30;4.20;;;9.40;99.90;;;;;;5201714;28;20180;-54
2022/05/06 02:17:10;;;;;;;6.90;4.17;;;9.30;99.90;;;;;;5201669;28;21031;-55
2022/05/06 02:19:42;;;;;;;5.63;4.60;;;9.30;99.90;;;;;;5199417;28;20254;-53
2022/05/06 02:22:12;;;;;;;5.37;4.60;;;9.30;99.90;;;;;;5204033;28;20450;-56
2022/05/06 02:24:43;;;;;;;6.73;5.30;;;9.30;99.90;;;;;;5203748;28;20453;-55
2022/05/06 02:27:13;;;;;;;11.10;5.50;;;9.30;99.90;;;;;;5201172;28;20290;-56
2022/05/06 02:33:12;;;;;;;11.40;6.00;;;9.30;99.90;;;;;;5201088;28;20207;-56
2022/05/06 02:35:25;;;;;;;4.70;4.30;;;9.40;99.90;;;;;;5203817;28;20492;-55
2022/05/06 02:37:56;;;;;;;6.23;3.93;;;9.40;99.90;;;;;;5195402;28;20471;-56
2022/05/06 02:40:27;;;;;;;4.77;4.30;;;9.40;99.90;;;;;;5203581;28;20888;-55
2022/05/06 02:42:57;;;;;;;4.27;3.80;;;9.40;99.90;;;;;;5202500;28;20229;-55
2022/05/06 02:45:28;;;;;;;7.77;5.20;;;9.40;99.90;;;;;;5196200;28;20795;-55
2022/05/06 02:47:59;;;;;;;6.20;5.43;;;9.30;99.90;;;;;;5201014;28;20230;-56
2022/05/06 02:50:30;;;;;;;5.10;4.50;;;9.30;99.90;;;;;;5197274;28;20681;-54
2022/05/06 02:53:01;;;;;;;4.80;4.40;;;9.30;99.90;;;;;;5201868;28;20442;-56
2022/05/06 02:55:33;;;;;;;5.60;4.90;;;9.30;99.90;;;;;;5202143;28;20595;-54
2022/05/06 02:58:03;;;;;;;4.97;4.57;;;9.20;99.90;;;;;;5199671;28;20438;-55
2022/05/06 03:00:34;;;;;;;7.20;5.77;;;9.20;99.90;;;;;;5195181;28;20464;-54
2022/05/06 03:03:05;;;;;;;5.63;4.60;;;9.20;99.90;;;;;;5194902;28;20198;-53
2022/05/06 03:05:35;;;;;;;5.97;4.63;;;9.20;99.90;;;;;;5196069;28;20183;-54
2022/05/06 03:08:06;;;;;;;11.40;6.27;;;9.20;99.90;;;;;;5188821;28;20511;-54
2022/05/06 03:10:37;;;;;;;8.80;5.40;;;9.10;99.90;;;;;;5201860;28;20211;-56
2022/05/06 03:13:07;;;;;;;20.63;6.17;;;9.20;99.90;;;;;;5202511;28;20180;-55
2022/05/06 03:15:38;;;;;;;7.93;5.80;;;9.10;99.90;;;;;;5208457;28;20184;-53
2022/05/06 03:18:08;;;;;;;7.50;6.17;;;9.00;99.90;;;;;;5198200;28;20713;-55
2022/05/06 03:20:39;;;;;;;17.53;5.23;;;9.00;99.90;;;;;;5198191;28;20219;-54
2022/05/06 03:23:13;;;;;;;6.23;4.90;;;9.00;99.90;;;;;;5198403;28;20589;-54
2022/05/06 03:25:43;;;;;;;5.23;4.73;;;9.00;99.90;;;;;;5194342;28;20462;-55
2022/05/06 03:28:14;;;;;;;7.37;5.03;;;9.00;99.90;;;;;;5201756;28;20876;-54
2022/05/06 03:30:45;;;;;;;5.03;4.53;;;9.10;99.90;;;;;;5200091;28;20215;-56
2022/05/06 03:33:17;;;;;;;8.27;5.33;;;9.10;99.90;;;;;;5199142;28;20431;-54
2022/05/06 03:35:48;;;;;;;9.33;6.30;;;9.10;99.90;;;;;;5201044;28;20180;-56
2022/05/06 03:38:18;;;;;;;8.60;5.83;;;9.10;99.90;;;;;;5193992;28;20871;-56
2022/05/06 03:40:49;;;;;;;7.23;5.70;;;9.10;99.90;;;;;;5195758;28;20701;-55
2022/05/06 03:43:19;;;;;;;8.80;5.47;;;9.10;99.90;;;;;;5194129;28;20181;-54
2022/05/06 03:45:50;;;;;;;6.53;5.70;;;9.20;99.90;;;;;;5197760;28;20175;-55
2022/05/06 03:48:24;;;;;;;5.10;4.60;;;9.20;99.90;;;;;;5198410;28;20200;-54
2022/05/06 03:53:44;;;;;;;5.90;5.30;;;9.30;99.90;;;;;;5198932;28;20954;-54
2022/05/06 03:56:15;;;;;;;5.30;4.60;;;9.30;99.90;;;;;;5199816;28;20462;-56
2022/05/06 03:58:46;;;;;;;6.20;4.90;;;9.30;99.90;;;;;;5197119;28;20179;-56
2022/05/06 04:01:18;;;;;;;4.73;4.33;;;9.30;99.90;;;;;;5202147;28;20196;-54
2022/05/06 04:03:48;;;;;;;5.23;4.80;;;9.30;99.90;;;;;;5198304;28;20238;-56
2022/05/06 04:06:19;;;;;;;9.00;6.30;;;9.40;99.90;;;;;;5198680;28;20427;-55
2022/05/06 04:08:49;;;;;;;6.27;5.63;;;9.50;99.90;;;;;;5199042;28;20207;-54
2022/05/06 04:11:20;;;;;;;6.43;5.13;;;9.60;99.90;;;;;;5196071;28;20195;-55
2022/05/06 04:13:51;;;;;;;5.80;5.00;;;9.70;99.90;;;;;;5208193;28;20900;-54
2022/05/06 04:16:24;;;;;;;7.13;5.13;;;9.70;99.90;;;;;;5199426;28;20426;-55
2022/05/06 04:18:54;;;;;;;7.03;4.63;;;9.70;99.90;;;;;;5199986;28;20956;-54
2022/05/06 04:24:14;;;;;;;23.43;5.67;;;9.90;99.90;;;;;;5197271;28;20336;-55
2022/05/06 04:26:45;;;;;;;7.80;5.60;;;10.00;99.90;;;;;;5197529;28;21055;-54
2022/05/06 04:29:15;;;;;;;7.80;5.80;;;10.10;99.90;;;;;;5196358;28;20272;-55
2022/05/06 04:31:46;;;;;;;8.67;5.73;;;10.20;99.90;;;;;;5196796;28;20175;-54
2022/05/06 04:34:16;;;;;;;6.20;5.60;;;10.40;99.90;;;;;;5201396;28;20183;-55
2022/05/06 04:36:47;;;;;;;16.43;5.90;;;10.50;99.90;;;;;;5198408;28;20680;-57
2022/05/06 04:39:17;;;;;;;12.00;6.93;;;10.60;99.90;;;;;;5222609;28;20198;-54
2022/05/06 04:41:49;;;;;;;8.20;5.47;;;10.70;99.90;;;;;;5205942;28;20194;-55
2022/05/06 04:44:20;;;;;;;12.87;6.73;;;10.90;99.90;;;;;;5196814;28;20611;-53
2022/05/06 04:46:52;;;;;;;14.83;7.03;;;11.10;99.90;;;;;;5197121;28;20519;-56
2022/05/06 04:49:23;;;;;;;14.40;7.40;;;11.80;99.90;;;;;;5195111;28;20474;-56
2022/05/06 04:51:53;;;;;;;11.07;7.13;;;12.50;99.90;;;;;;5202188;28;20442;-55
2022/05/06 04:54:24;;;;;;;11.43;6.67;;;13.10;99.90;;;;;;5199634;28;20708;-55
2022/05/06 04:56:55;;;;;;;18.67;7.30;;;13.40;99.90;;;;;;5200766;28;20176;-56
2022/05/06 04:59:25;;;;;;;8.47;6.47;;;13.30;99.90;;;;;;5189670;28;20351;-55
2022/05/06 05:01:56;;;;;;;8.57;5.80;;;13.30;99.90;;;;;;5182157;28;21131;-56
2022/05/06 05:04:29;;;;;;;14.17;7.70;;;13.60;99.90;;;;;;5198347;28;20226;-55
2022/05/06 05:07:00;;;;;;;8.33;7.17;;;14.00;99.90;;;;;;5197997;28;20199;-53
2022/05/06 05:09:30;;;;;;;11.47;7.30;;;14.40;99.90;;;;;;5203455;28;20454;-55
2022/05/06 05:12:01;;;;;;;9.07;6.10;;;15.10;99.90;;;;;;5202094;28;20271;-55
2022/05/06 05:14:35;;;;;;;10.73;6.60;;;16.00;97.40;;;;;;5205091;28;20203;-55
2022/05/06 05:17:05;;;;;;;8.93;6.13;;;17.30;91.40;;;;;;5197524;28;20203;-57
2022/05/06 05:19:37;;;;;;;15.13;6.90;;;18.70;77.00;;;;;;5200127;28;20496;-55
2022/05/06 05:22:07;;;;;;;12.30;5.80;;;20.40;64.50;;;;;;5215697;28;20195;-55
2022/05/06 05:24:38;;;;;;;10.60;5.83;;;22.20;55.80;;;;;;5201524;28;20477;-55
2022/05/06 05:27:08;;;;;;;12.87;6.40;;;23.80;49.50;;;;;;5202392;28;20595;-55
2022/05/06 05:29:40;;;;;;;17.07;6.10;;;25.10;44.40;;;;;;5204914;28;20204;-58
2022/05/06 05:32:10;;;;;;;13.93;6.57;;;26.00;41.90;;;;;;5199825;28;20179;-60
2022/05/06 05:34:42;;;;;;;10.43;5.50;;;26.80;39.90;;;;;;5186756;28;20528;-56
2022/05/06 05:37:13;;;;;;;15.30;6.70;;;27.50;37.10;;;;;;5196713;28;22044;-58
2022/05/06 05:39:44;;;;;;;9.83;5.50;;;26.90;36.30;;;;;;5197866;28;20458;-56
2022/05/06 05:42:21;;;;;;;11.10;5.77;;;27.20;36.80;;;;;;5201053;28;20727;-55
2022/05/06 05:50:30;;;;;;;9.47;5.63;;;28.20;34.30;;;;;;5196999;28;20473;-57
2022/05/06 05:53:02;;;;;;;15.27;7.53;;;28.50;33.30;;;;;;5201576;28;20432;-57
2022/05/06 05:55:32;;;;;;;7.17;4.93;;;28.80;32.70;;;;;;5201531;28;20794;-58
2022/05/06 05:58:03;;;;;;;6.40;4.47;;;29.00;32.80;;;;;;5201327;28;20441;-57
2022/05/06 06:00:33;;;;;;;16.80;5.00;;;29.60;31.60;;;;;;5201773;28;20203;-57
2022/05/06 06:03:04;;;;;;;14.70;5.87;;;30.50;30.20;;;;;;5198350;28;20194;-57
2022/05/06 06:05:34;;;;;;;9.60;5.20;;;31.10;29.70;;;;;;5200481;28;20538;-56
2022/05/06 06:08:05;;;;;;;10.07;5.13;;;31.60;28.70;;;;;;5202012;28;20785;-57
2022/05/06 06:10:35;;;;;;;8.60;5.37;;;31.80;28.10;;;;;;5195514;28;20215;-55
2022/05/06 06:13:06;;;;;;;14.70;4.00;;;31.70;26.80;;;;;;5201063;28;20270;-56
2022/05/06 06:15:36;;;;;;;12.53;4.90;;;31.70;27.60;;;;;;5196248;28;20274;-55
2022/05/06 06:18:07;;;;;;;8.50;5.70;;;31.50;26.60;;;;;;5211420;28;20671;-55
2022/05/06 06:20:38;;;;;;;8.23;4.33;;;31.50;27.00;;;;;;5199348;28;20226;-57
2022/05/06 06:23:08;;;;;;;13.13;5.30;;;31.80;26.50;;;;;;5203467;28;20175;-56
2022/05/06 06:25:40;;;;;;;9.33;4.00;;;31.50;26.30;;;;;;5204960;28;20218;-57
2022/05/06 06:28:10;;;;;;;6.30;4.17;;;31.60;26.70;;;;;;5200226;28;20549;-56
2022/05/06 06:30:41;;;;;;;10.93;4.37;;;31.80;26.50;;;;;;5203537;28;20507;-56
2022/05/06 06:33:11;;;;;;;8.37;4.97;;;31.80;26.40;;;;;;5210821;28;20660;-58
2022/05/06 06:35:42;;;;;;;8.50;4.33;;;32.40;26.40;;;;;;5202372;28;20187;-56
2022/05/06 06:38:13;;;;;;;10.10;3.97;;;32.50;25.00;;;;;;5205804;28;20180;-56
2022/05/06 06:40:43;;;;;;;4.93;4.30;;;32.00;25.70;;;;;;5202447;28;20218;-57
2022/05/06 06:43:14;;;;;;;7.90;3.50;;;32.60;25.40;;;;;;5197270;28;20211;-56
2022/05/06 06:45:44;;;;;;;13.80;4.53;;;32.60;25.30;;;;;;5198793;28;20194;-56
2022/05/06 06:48:15;;;;;;;7.23;4.23;;;32.50;26.40;;;;;;5204333;28;20300;-58
2022/05/06 06:50:45;;;;;;;5.10;3.90;;;32.20;25.30;;;;;;5199897;28;20256;-56
2022/05/06 06:53:16;;;;;;;3.87;3.43;;;32.50;25.30;;;;;;5199390;28;20179;-56
2022/05/06 06:55:46;;;;;;;10.73;3.60;;;33.00;25.50;;;;;;5203424;28;20201;-57
2022/05/06 06:58:17;;;;;;;29.53;4.50;;;33.80;24.90;;;;;;5202477;28;20278;-56
2022/05/06 07:00:47;;;;;;;11.63;3.67;;;33.80;24.40;;;;;;5201210;28;20701;-58
2022/05/06 07:03:18;;;;;;;12.57;3.90;;;34.30;24.20;;;;;;5202054;28;20640;-60
2022/05/06 07:14:16;;;;;;;9.77;4.13;;;32.70;25.50;;;;;;5199885;28;20441;-56
2022/05/06 07:16:46;;;;;;;8.90;4.40;;;33.10;25.40;;;;;;5207417;28;20418;-57
2022/05/06 07:19:17;;;;;;;7.20;4.87;;;33.30;24.70;;;;;;5197508;28;20709;-56
2022/05/06 07:21:52;;;;;;;11.10;5.00;;;32.70;25.30;;;;;;5204828;28;20203;-57
2022/05/06 07:24:24;;;;;;;9.77;4.57;;;32.30;25.70;;;;;;5204729;28;20627;-56
2022/05/06 07:26:55;;;;;;;5.47;3.37;;;32.40;26.00;;;;;;5207874;28;20956;-57
2022/05/06 07:29:25;;;;;;;6.90;3.80;;;32.60;25.90;;;;;;5218141;28;20541;-56
2022/05/06 07:31:56;;;;;;;7.87;5.10;;;32.90;25.60;;;;;;5205516;28;20187;-57
2022/05/06 07:34:26;;;;;;;16.90;5.87;;;32.50;25.30;;;;;;5204791;28;20194;-57
2022/05/06 07:36:57;;;;;;;15.47;5.50;;;32.50;26.00;;;;;;5202951;28;20741;-56
2022/05/06 07:39:28;;;;;;;16.10;4.70;;;31.90;26.60;;;;;;5201739;28;20733;-57
2022/05/06 07:41:58;;;;;;;8.33;5.73;;;31.80;26.80;;;;;;5200815;28;20179;-56
2022/05/06 07:44:29;;;;;;;9.70;5.63;;;31.20;27.00;;;;;;5199567;28;20714;-58
2022/05/06 07:47:00;;;;;;;8.00;6.37;;;31.30;27.60;;;;;;5205243;28;20211;-56
2022/05/06 07:49:31;;;;;;;8.90;5.70;;;31.90;26.80;;;;;;5206431;28;20714;-57
2022/05/06 07:52:01;;;;;;;10.40;5.77;;;31.50;26.60;;;;;;5204757;28;20196;-55
2022/05/06 07:54:32;;;;;;;8.07;5.33;;;30.50;27.60;;;;;;5204210;28;20222;-57
2022/05/06 07:57:03;;;;;;;16.23;5.43;;;29.20;29.50;;;;;;5203047;28;20187;-56
2022/05/06 07:59:33;;;;;;;7.77;5.07;;;28.50;29.30;;;;;;5203525;28;20245;-57
2022/05/06 08:04:53;;;;;;;7.43;5.13;;;24.60;35.30;;;;;;5198788;28;20180;-58
2022/05/06 08:07:24;;;;;;;10.63;6.73;;;24.70;36.20;;;;;;5219386;28;20466;-55
2022/05/06 08:09:56;;;;;;;11.70;6.37;;;25.60;34.60;;;;;;5203854;28;20206;-56
2022/05/06 08:12:26;;;;;;;8.40;5.70;;;25.90;34.10;;;;;;5194921;28;20207;-59
2022/05/06 08:14:57;;;;;;;10.87;5.83;;;26.90;33.00;;;;;;5218717;28;20576;-56
2022/05/06 08:17:27;;;;;;;20.70;6.20;;;28.40;31.30;;;;;;5201504;28;20188;-57
2022/05/06 08:19:58;;;;;;;8.40;4.87;;;30.10;29.50;;;;;;5205634;28;20214;-57
2022/05/06 08:22:28;;;;;;;14.00;6.33;;;31.70;28.00;;;;;;5207171;28;20199;-57
2022/05/06 08:25:00;;;;;;;6.90;5.80;;;31.90;26.70;;;;;;5219563;28;20556;-56
2022/05/06 08:27:37;;;;;;;6.20;5.20;;;31.00;27.00;;;;;;5202278;28;20203;-58
2022/05/06 08:30:10;;;;;;;7.40;5.27;;;29.60;28.70;;;;;;5206547;28;20454;-54
2022/05/06 08:32:41;;;;;;;7.80;6.07;;;27.70;30.50;;;;;;5208584;28;20790;-56
2022/05/06 08:35:12;;;;;;;7.57;5.70;;;25.70;33.60;;;;;;5207009;28;20430;-56
2022/05/06 08:37:44;;;;;;;6.77;5.50;;;24.20;36.00;;;;;;5208355;28;20430;-55
2022/05/06 08:40:31;;;;;;;10.50;5.50;;;23.10;37.90;;;;;;5197697;28;21044;-55
2022/05/06 08:43:04;;;;;;;9.53;5.47;;;22.50;39.30;;;;;;5200395;28;20912;-56
2022/05/06 08:51:15;;;;;;;22.63;6.63;;;24.80;37.50;;;;;;5205356;28;20755;-56
2022/05/06 08:53:46;;;;;;;16.10;6.03;;;25.10;36.00;;;;;;5201661;28;20446;-56
2022/05/06 08:56:16;;;;;;;15.37;6.43;;;24.70;36.30;;;;;;5202948;28;20237;-56
2022/05/06 08:58:47;;;;;;;5.57;5.07;;;24.00;36.90;;;;;;5196170;28;20761;-56
2022/05/06 09:01:22;;;;;;;8.90;6.10;;;23.70;38.10;;;;;;5213951;28;20353;-57
2022/05/06 09:03:55;;;;;;;13.60;5.27;;;23.20;37.90;;;;;;5215480;28;20535;-56
2022/05/06 09:06:28;;;;;;;5.70;4.40;;;22.90;38.10;;;;;;5201106;28;20434;-55
2022/05/06 09:09:00;;;;;;;5.77;4.60;;;22.80;39.20;;;;;;5198635;28;20785;-56
2022/05/06 09:16:39;;;;;;;8.33;6.80;;;22.40;39.90;;;;;;5195091;28;20430;-55
2022/05/06 09:17:19;;;;;;;8.67;5.53;;;22.10;40.40;;;;;;5201442;28;20587;-57
2022/05/06 09:19:50;;;;;;;7.87;4.50;;;21.20;41.90;;;;;;5202352;28;20458;-55
2022/05/06 09:22:27;;;;;;;16.40;6.33;;;20.90;42.60;;;;;;5203516;28;20454;-58
2022/05/06 09:24:57;;;;;;;14.07;6.17;;;20.70;42.90;;;;;;5201898;28;20192;-58
2022/05/06 09:27:28;;;;;;;6.10;4.80;;;20.50;43.00;;;;;;5202644;28;20465;-58
2022/05/06 09:30:05;;;;;;;10.30;6.00;;;20.50;42.80;;;;;;5213377;28;20203;-57
2022/05/06 09:32:36;;;;;;;5.37;4.80;;;20.50;43.00;;;;;;5198713;28;20208;-58
2022/05/06 09:35:07;;;;;;;7.23;4.27;;;20.80;42.50;;;;;;5199101;28;20441;-58
2022/05/06 09:37:43;;;;;;;7.20;4.67;;;20.80;43.00;;;;;;5217656;28;20229;-57
2022/05/06 09:40:15;;;;;;;11.50;5.30;;;20.80;43.00;;;;;;5195018;28;20453;-57
2022/05/06 09:43:00;;;;;;;9.90;5.70;;;20.90;42.70;;;;;;5196736;28;20624;-58
2022/05/06 09:45:38;;;;;;;12.40;4.87;;;20.80;42.80;;;;;;5197591;28;20446;-57
2022/05/06 09:48:13;;;;;;;3.87;3.57;;;20.60;42.90;;;;;;5201480;28;20886;-62
2022/05/06 09:50:46;;;;;;;15.53;5.60;;;20.40;43.10;;;;;;5221839;28;20997;-58
2022/05/06 09:53:19;;;;;;;7.63;4.20;;;19.90;42.90;;;;;;5205521;28;20419;-57
2022/05/06 09:55:49;;;;;;;10.10;4.40;;;19.60;44.00;;;;;;5206225;28;20483;-57
2022/05/06 09:58:20;;;;;;;4.80;4.40;;;19.70;45.30;;;;;;5205338;28;20438;-57
2022/05/06 10:00:50;;;;;;;6.30;4.10;;;19.90;44.00;;;;;;5201937;28;20204;-57
2022/05/06 10:03:21;;;;;;;6.07;4.60;;;20.00;44.10;;;;;;5199782;28;20636;-57
2022/05/06 10:05:52;;;;;;;6.70;4.07;;;20.00;43.20;;;;;;5196693;28;20283;-58
2022/05/06 10:08:23;;;;;;;9.93;4.40;;;20.40;43.90;;;;;;5202674;28;20211;-56
2022/05/06 10:10:57;;;;;;;3.57;3.37;;;20.70;42.90;;;;;;5201846;28;20818;-58
2022/05/06 10:13:32;;;;;;;4.30;3.80;;;20.90;42.70;;;;;;5200143;28;20533;-59
2022/05/06 10:16:03;;;;;;;8.40;4.93;;;20.70;42.40;;;;;;5203521;28;20434;-57
2022/05/06 10:18:41;;;;;;;6.27;3.57;;;20.90;43.20;;;;;;5213427;28;20500;-57
2022/05/06 10:21:13;;;;;;;10.63;4.33;;;20.90;42.60;;;;;;5201481;28;20457;-58
2022/05/06 10:23:55;;;;;;;16.43;10.87;;;20.40;42.40;;;;;;5205079;28;20430;-57
2022/05/06 10:26:43;;;;;;;16.07;9.13;;;19.90;43.20;;;;;;5204927;28;20433;-57
2022/05/06 10:32:56;;;;;;;3.73;3.43;;;19.30;43.20;;;;;;5201382;28;20414;-58
2022/05/06 10:35:38;;;;;;;6.37;4.87;;;19.60;44.40;;;;;;5202323;28;20442;-60
2022/05/06 10:38:23;;;;;;;12.97;5.00;;;20.10;43.60;;;;;;5206383;28;20446;-58
2022/05/06 10:40:58;;;;;;;6.47;3.87;;;20.70;42.80;;;;;;5207811;28;20458;-59
2022/05/06 10:43:41;;;;;;;3.30;2.40;;;21.10;41.40;;;;;;5202409;28;20448;-58
2022/05/06 10:46:29;;;;;;;14.73;5.97;;;21.30;41.20;;;;;;5200128;28;20431;-58
2022/05/06 10:49:46;;;;;;;35.97;18.97;;;21.40;40.60;;;;;;5203560;28;20470;-58
2022/05/06 10:52:27;;;;;;;7.37;4.60;;;20.90;40.70;;;;;;5191311;28;20946;-58
2022/05/06 10:55:00;;;;;;;8.03;5.47;;;20.50;42.30;;;;;;5200960;28;20480;-59
2022/05/06 10:57:32;;;;;;;16.00;6.57;;;20.10;43.30;;;;;;5199692;28;20488;-58
2022/05/06 11:00:06;;;;;;;3.93;3.50;;;20.00;43.50;;;;;;5200144;28;20465;-59
2022/05/06 11:02:38;;;;;;;6.73;4.13;;;19.70;43.90;;;;;;5196580;28;20462;-60
2022/05/06 11:05:11;;;;;;;9.23;3.50;;;19.60;44.40;;;;;;5201975;28;20431;-57
2022/05/06 11:07:43;;;;;;;6.03;3.10;;;19.50;44.30;;;;;;5200054;28;20481;-60
2022/05/06 11:10:20;;;;;;;4.10;3.40;;;19.40;43.80;;;;;;5202453;28;20611;-57
2022/05/06 11:12:53;;;;;;;14.60;8.20;;;19.50;44.00;;;;;;5204714;28;20964;-57
2022/05/06 11:15:30;;;;;;;27.03;17.13;;;19.80;44.00;;;;;;5196928;28;20466;-59
2022/05/06 11:18:04;;;;;;;6.43;4.73;;;19.90;43.50;;;;;;5204388;28;20845;-59
2022/05/06 11:20:37;;;;;;;6.07;3.30;;;20.00;43.10;;;;;;5204102;28;20545;-56
2022/05/06 11:23:08;;;;;;;4.20;3.77;;;20.10;43.10;;;;;;5196745;28;20442;-56
2022/05/06 11:25:44;;;;;;;5.13;2.50;;;19.90;43.10;;;;;;5194844;28;20446;-59
2022/05/06 11:28:17;;;;;;;9.40;3.30;;;19.90;43.30;;;;;;5197243;28;20473;-58
2022/05/06 11:30:49;;;;;;;50.73;27.27;;;19.80;43.40;;;;;;5196874;28;20604;-58
2022/05/06 11:33:31;;;;;;;17.13;7.80;;;19.60;42.90;;;;;;5200451;28;20606;-60
2022/05/06 11:36:03;;;;;;;15.00;9.07;;;19.70;43.20;;;;;;5199534;28;20930;-59
2022/05/06 11:38:35;;;;;;;11.47;5.23;;;20.00;42.90;;;;;;5202565;28;20553;-56
2022/05/06 11:41:11;;;;;;;5.70;3.30;;;20.40;42.00;;;;;;5218850;28;20470;-58
2022/05/06 11:43:43;;;;;;;4.47;2.50;;;20.30;41.60;;;;;;5196696;28;20443;-57
2022/05/06 11:49:21;;;;;;;2.47;2.00;;;20.10;41.90;;;;;;5195986;28;20465;-57
2022/05/06 11:51:55;;;;;;;7.20;2.47;;;19.90;42.40;;;;;;5214805;28;20926;-58
2022/05/06 11:54:26;;;;;;;2.57;2.47;;;19.90;42.30;;;;;;5194986;28;20434;-58
2022/05/06 11:56:57;;;;;;;5.70;2.60;;;19.90;41.70;;;;;;5198159;28;20449;-57
2022/05/06 11:59:28;;;;;;;2.37;2.17;;;19.90;41.40;;;;;;5205243;28;20458;-57
2022/05/06 12:02:06;;;;;;;1.53;1.43;;;19.90;41.60;;;;;;5199504;28;20853;-56
2022/05/06 12:04:37;;;;;;;2.50;2.37;;;19.90;41.90;;;;;;5202959;28;20441;-60
2022/05/06 12:07:07;;;;;;;2.93;2.10;;;19.80;41.90;;;;;;5198521;28;20959;-58
2022/05/06 12:09:43;;;;;;;2.93;2.47;;;20.00;42.20;;;;;;5192059;28;20211;-58
2022/05/06 12:12:13;;;;;;;4.73;3.40;;;19.70;42.40;;;;;;5200726;28;20307;-58
2022/05/06 12:14:44;;;;;;;5.17;3.80;;;19.70;42.80;;;;;;5203590;28;20516;-58
2022/05/06 12:17:15;;;;;;;10.43;5.60;;;19.70;43.00;;;;;;5196766;28;20207;-58
2022/05/06 12:19:46;;;;;;;3.37;3.17;;;19.90;43.20;;;;;;5194037;28;20241;-57
2022/05/06 12:22:24;;;;;;;7.30;3.47;;;20.10;42.70;;;;;;5214090;28;20306;-58
2022/05/06 12:24:58;;;;;;;2.40;2.40;;;20.00;42.40;;;;;;5206511;28;20446;-58
2022/05/06 12:27:34;;;;;;;2.47;2.30;;;19.90;42.60;;;;;;5204074;28;20497;-57
2022/05/06 12:30:15;;;;;;;3.10;2.90;;;19.80;41.70;;;;;;5200082;28;20686;-58
2022/05/06 12:33:01;;;;;;;2.40;2.20;;;19.80;41.70;;;;;;5213210;28;20787;-58
2022/05/06 12:35:52;;;;;;;13.17;8.87;;;19.90;41.40;;;;;;5200274;28;20445;-59
2022/05/06 12:38:24;;;;;;;18.50;9.67;;;20.00;41.40;;;;;;5195840;28;20446;-58
2022/05/06 12:40:55;;;;;;;9.20;5.60;;;20.10;40.60;;;;;;5195280;28;20789;-58
2022/05/06 12:43:27;;;;;;;3.93;3.20;;;20.20;40.10;;;;;;5198096;28;20434;-58
2022/05/06 12:46:00;;;;;;;2.07;1.97;;;20.60;40.30;;;;;;5200356;28;20186;-59
2022/05/06 12:51:20;;;;;;;4.30;2.70;;;21.30;39.60;;;;;;5196095;28;20481;-58
2022/05/06 12:53:50;;;;;;;4.63;3.60;;;21.50;39.00;;;;;;5194163;28;20520;-58
2022/05/06 12:56:21;;;;;;;3.13;2.70;;;21.30;39.80;;;;;;5198641;28;20640;-58
2022/05/06 12:58:52;;;;;;;4.10;2.13;;;21.20;40.20;;;;;;5196837;28;20180;-58
2022/05/06 13:01:23;;;;;;;1.33;1.30;;;21.30;40.30;;;;;;5201843;28;20958;-57
2022/05/06 13:03:53;;;;;;;4.67;1.87;;;21.50;39.60;;;;;;5200694;28;20180;-58
2022/05/06 13:06:24;;;;;;;1.60;1.50;;;21.70;38.60;;;;;;5199984;28;20214;-58
2022/05/06 13:08:55;;;;;;;3.27;2.83;;;21.90;38.60;;;;;;5206205;28;20200;-57
2022/05/06 13:11:26;;;;;;;5.27;3.03;;;22.10;38.30;;;;;;5198389;28;20604;-59
2022/05/06 13:13:58;;;;;;;1.60;1.50;;;22.40;37.80;;;;;;5200849;28;20245;-58
2022/05/06 13:16:29;;;;;;;1.57;1.47;;;22.70;35.80;;;;;;5203181;28;20435;-59
2022/05/06 13:18:59;;;;;;;6.63;1.50;;;22.70;35.30;;;;;;5198276;28;20434;-58
2022/05/06 13:21:31;;;;;;;1.30;1.20;;;22.80;35.00;;;;;;5199898;28;20199;-58
2022/05/06 13:24:01;;;;;;;3.80;1.30;;;22.50;34.30;;;;;;5205736;28;20241;-58
2022/05/06 13:26:33;;;;;;;1.10;1.00;;;22.50;35.20;;;;;;5194169;28;20828;-60
2022/05/06 13:29:04;;;;;;;6.30;1.40;;;22.30;34.90;;;;;;5197866;28;20584;-59
2022/05/06 13:31:35;;;;;;;1.87;1.50;;;22.30;35.10;;;;;;5199760;28;20431;-59
2022/05/06 13:34:05;;;;;;;2.77;1.33;;;21.90;34.90;;;;;;5205607;28;20460;-59
2022/05/06 13:36:37;;;;;;;1.33;1.23;;;21.60;35.80;;;;;;5204663;28;20180;-58
2022/05/06 13:39:08;;;;;;;1.33;1.23;;;21.40;36.40;;;;;;5201727;28;20203;-58
2022/05/06 13:41:40;;;;;;;0.90;0.90;;;21.60;36.90;;;;;;5204008;28;20430;-60
2022/05/06 13:44:10;;;;;;;1.40;1.13;;;21.60;36.50;;;;;;5202271;28;20184;-58
2022/05/06 13:46:41;;;;;;;1.27;1.17;;;21.70;36.70;;;;;;5203994;28;20744;-59
2022/05/06 13:49:11;;;;;;;8.53;1.50;;;22.00;36.10;;;;;;5205699;28;20249;-58
2022/05/06 13:51:42;;;;;;;1.20;1.20;;;22.20;35.50;;;;;;5199853;28;20195;-59
2022/05/06 13:54:12;;;;;;;2.93;1.90;;;22.30;35.90;;;;;;5200651;28;20223;-59
2022/05/06 13:59:32;;;;;;;1.23;1.20;;;22.60;35.60;;;;;;5198277;28;20234;-59